EWG31 EDDH-EDDK
Flight info
| Callsign | EWG31 |
|---|---|
| Flight time | 0h 43m |
| Altitude | 29000 |
| Route | IDEKO7G IDEKO N850 NIE DCT LARBU/N0399F280 DCT PODER Z189 RUNER/N0376F240 T858 KOPAG |
| Aircraft | A320/M-SDE3FGHIRWY/LB1 |
Departure
| Time | 2026-04-22 08:06 |
|---|---|
| Airport | Hamburg Helmut Schmidt Airport (EDDH) |
Arrival
| Time | 2026-04-22 08:50 |
|---|---|
| Airport | Cologne Bonn Airport (EDDK) |
| Time | Latitude | Longitude | Altitude | Speed | Heading |
|---|---|---|---|---|---|
| 2026-04-22 07:37 | 53.63294 | 10.00359 | 51 ft | 0 kts | 86° |
| 2026-04-22 07:59 | 53.63293 | 10.00338 | 51 ft | 2 kts | 86° |
| 2026-04-22 07:59 | 53.63292 | 10.00310 | 51 ft | 2 kts | 86° |
| 2026-04-22 07:59 | 53.63291 | 10.00282 | 51 ft | 2 kts | 87° |
| 2026-04-22 08:00 | 53.63291 | 10.00254 | 51 ft | 2 kts | 88° |
| 2026-04-22 08:00 | 53.63290 | 10.00227 | 51 ft | 2 kts | 86° |
| 2026-04-22 08:00 | 53.63293 | 10.00199 | 49 ft | 2 kts | 120° |
| 2026-04-22 08:00 | 53.63303 | 10.00177 | 45 ft | 2 kts | 149° |
| 2026-04-22 08:01 | 53.63313 | 10.00169 | 45 ft | 1 kts | 176° |
| 2026-04-22 08:01 | 53.63313 | 10.00168 | 45 ft | 0 kts | 178° |
| 2026-04-22 08:03 | 53.63289 | 10.00171 | 51 ft | 6 kts | 176° |
| 2026-04-22 08:03 | 53.63253 | 10.00174 | 51 ft | 5 kts | 176° |
| 2026-04-22 08:03 | 53.63223 | 10.00177 | 51 ft | 5 kts | 176° |
| 2026-04-22 08:03 | 53.63156 | 10.00184 | 49 ft | 12 kts | 176° |
| 2026-04-22 08:04 | 53.63079 | 10.00187 | 51 ft | 10 kts | 193° |
| 2026-04-22 08:04 | 53.63021 | 10.00133 | 51 ft | 11 kts | 213° |
| 2026-04-22 08:04 | 53.62946 | 10.00050 | 48 ft | 12 kts | 217° |
| 2026-04-22 08:04 | 53.62902 | 9.99933 | 49 ft | 12 kts | 243° |
| 2026-04-22 08:05 | 53.62865 | 9.99808 | 49 ft | 12 kts | 243° |
| 2026-04-22 08:05 | 53.62884 | 9.99728 | 49 ft | 0 kts | 335° |
| 2026-04-22 08:06 | 53.62924 | 9.99694 | 49 ft | 32 kts | 333° |
| 2026-04-22 08:06 | 53.63348 | 9.99328 | 51 ft | 101 kts | 333° |
| 2026-04-22 08:06 | 53.64134 | 9.98646 | 53 ft | 151 kts | 332° |
| 2026-04-22 08:06 | 53.65073 | 9.97799 | 682 ft | 151 kts | 332° |
| 2026-04-22 08:07 | 53.66015 | 9.97016 | 1473 ft | 153 kts | 334° |
| 2026-04-22 08:07 | 53.67060 | 9.96177 | 1872 ft | 177 kts | 334° |
| 2026-04-22 08:07 | 53.68236 | 9.95181 | 2293 ft | 200 kts | 333° |
| 2026-04-22 08:07 | 53.69502 | 9.94087 | 3053 ft | 208 kts | 333° |
| 2026-04-22 08:08 | 53.70775 | 9.92890 | 3920 ft | 212 kts | 322° |
| 2026-04-22 08:08 | 53.71541 | 9.90769 | 4677 ft | 221 kts | 281° |
| 2026-04-22 08:08 | 53.71424 | 9.88056 | 5155 ft | 246 kts | 258° |
| 2026-04-22 08:08 | 53.70912 | 9.85149 | 5677 ft | 268 kts | 252° |
| 2026-04-22 08:09 | 53.70259 | 9.82138 | 6470 ft | 277 kts | 251° |
| 2026-04-22 08:09 | 53.69568 | 9.79063 | 7276 ft | 283 kts | 251° |
| 2026-04-22 08:09 | 53.68875 | 9.75915 | 8121 ft | 288 kts | 251° |
| 2026-04-22 08:09 | 53.68197 | 9.72713 | 9015 ft | 292 kts | 252° |
| 2026-04-22 08:10 | 53.67529 | 9.69442 | 9872 ft | 297 kts | 253° |
| 2026-04-22 08:10 | 53.66866 | 9.66124 | 10667 ft | 303 kts | 252° |
| 2026-04-22 08:10 | 53.65874 | 9.62894 | 10956 ft | 328 kts | 234° |
| 2026-04-22 08:10 | 53.64225 | 9.60085 | 11319 ft | 347 kts | 216° |
| 2026-04-22 08:11 | 53.62123 | 9.58043 | 11970 ft | 353 kts | 201° |
| 2026-04-22 08:11 | 53.59752 | 9.56903 | 12696 ft | 356 kts | 187° |
| 2026-04-22 08:11 | 53.57285 | 9.56386 | 13438 ft | 359 kts | 185° |
| 2026-04-22 08:11 | 53.54791 | 9.55885 | 14168 ft | 363 kts | 185° |
| 2026-04-22 08:12 | 53.52268 | 9.55384 | 14814 ft | 368 kts | 184° |
| 2026-04-22 08:12 | 53.49744 | 9.54885 | 15451 ft | 372 kts | 184° |
| 2026-04-22 08:12 | 53.47162 | 9.54378 | 16087 ft | 376 kts | 184° |
| 2026-04-22 08:12 | 53.44554 | 9.53861 | 16719 ft | 380 kts | 184° |
| 2026-04-22 08:13 | 53.41916 | 9.53339 | 17352 ft | 384 kts | 184° |
| 2026-04-22 08:13 | 53.39244 | 9.52813 | 17980 ft | 388 kts | 184° |
| 2026-04-22 08:13 | 53.36545 | 9.52287 | 18585 ft | 393 kts | 183° |
| 2026-04-22 08:13 | 53.33816 | 9.51752 | 19127 ft | 396 kts | 183° |
| 2026-04-22 08:14 | 53.31066 | 9.51213 | 19661 ft | 400 kts | 183° |
| 2026-04-22 08:14 | 53.28325 | 9.50676 | 20183 ft | 404 kts | 183° |
| 2026-04-22 08:14 | 53.25523 | 9.50127 | 20714 ft | 407 kts | 183° |
| 2026-04-22 08:14 | 53.22702 | 9.49577 | 21218 ft | 411 kts | 183° |
| 2026-04-22 08:15 | 53.19847 | 9.49022 | 21719 ft | 414 kts | 182° |
| 2026-04-22 08:15 | 53.16970 | 9.48466 | 22218 ft | 418 kts | 182° |
| 2026-04-22 08:15 | 53.14072 | 9.47904 | 22709 ft | 421 kts | 182° |
| 2026-04-22 08:15 | 53.11148 | 9.47336 | 23195 ft | 425 kts | 182° |
| 2026-04-22 08:16 | 53.08195 | 9.46762 | 23662 ft | 428 kts | 182° |
| 2026-04-22 08:16 | 53.05228 | 9.46188 | 24102 ft | 432 kts | 182° |
| 2026-04-22 08:16 | 53.02226 | 9.45606 | 24508 ft | 435 kts | 182° |
| 2026-04-22 08:16 | 52.99258 | 9.45028 | 24929 ft | 437 kts | 182° |
| 2026-04-22 08:17 | 52.96233 | 9.44421 | 25345 ft | 439 kts | 182° |
| 2026-04-22 08:17 | 52.93195 | 9.43778 | 25748 ft | 441 kts | 183° |
| 2026-04-22 08:17 | 52.90146 | 9.43111 | 26143 ft | 443 kts | 183° |
| 2026-04-22 08:17 | 52.87077 | 9.42434 | 26540 ft | 446 kts | 183° |
| 2026-04-22 08:18 | 52.83996 | 9.41759 | 26933 ft | 448 kts | 183° |
| 2026-04-22 08:18 | 52.80904 | 9.41092 | 27318 ft | 450 kts | 183° |
| 2026-04-22 08:18 | 52.77794 | 9.40424 | 27699 ft | 452 kts | 183° |
| 2026-04-22 08:18 | 52.74674 | 9.39760 | 28075 ft | 454 kts | 183° |
| 2026-04-22 08:19 | 52.71575 | 9.39107 | 28447 ft | 456 kts | 183° |
| 2026-04-22 08:19 | 52.68426 | 9.38445 | 28821 ft | 458 kts | 183° |
| 2026-04-22 08:19 | 52.65256 | 9.37777 | 29192 ft | 460 kts | 183° |
| 2026-04-22 08:19 | 52.62080 | 9.37110 | 29393 ft | 460 kts | 183° |
| 2026-04-22 08:20 | 52.58956 | 9.36404 | 29411 ft | 446 kts | 184° |
| 2026-04-22 08:20 | 52.55904 | 9.35654 | 29410 ft | 441 kts | 184° |
| 2026-04-22 08:20 | 52.49860 | 9.34111 | 29410 ft | 439 kts | 185° |
| 2026-04-22 08:21 | 52.43870 | 9.32615 | 29410 ft | 438 kts | 184° |
| 2026-04-22 08:21 | 52.37840 | 9.31152 | 29409 ft | 438 kts | 184° |
| 2026-04-22 08:22 | 52.31813 | 9.29697 | 29408 ft | 437 kts | 184° |
| 2026-04-22 08:22 | 52.25802 | 9.28246 | 29409 ft | 437 kts | 184° |
| 2026-04-22 08:23 | 52.19788 | 9.26798 | 29413 ft | 437 kts | 184° |
| 2026-04-22 08:23 | 52.13819 | 9.25357 | 29411 ft | 436 kts | 184° |
| 2026-04-22 08:24 | 52.07822 | 9.23916 | 29409 ft | 436 kts | 184° |
| 2026-04-22 08:24 | 52.01828 | 9.22481 | 29409 ft | 435 kts | 184° |
| 2026-04-22 08:25 | 51.95840 | 9.21044 | 29407 ft | 435 kts | 184° |
| 2026-04-22 08:25 | 51.90042 | 9.18386 | 29398 ft | 442 kts | 203° |
| 2026-04-22 08:26 | 51.87386 | 9.15879 | 29392 ft | 444 kts | 214° |
| 2026-04-22 08:26 | 51.85023 | 9.12643 | 29393 ft | 446 kts | 225° |
| 2026-04-22 08:26 | 51.80945 | 9.05093 | 29380 ft | 446 kts | 228° |
| 2026-04-22 08:27 | 51.76868 | 8.97535 | 29275 ft | 444 kts | 228° |
| 2026-04-22 08:27 | 51.74846 | 8.93804 | 28992 ft | 439 kts | 228° |
| 2026-04-22 08:27 | 51.72870 | 8.90163 | 28711 ft | 437 kts | 228° |
| 2026-04-22 08:28 | 51.70875 | 8.86489 | 28301 ft | 433 kts | 228° |
| 2026-04-22 08:28 | 51.68901 | 8.82850 | 27781 ft | 429 kts | 228° |
| 2026-04-22 08:28 | 51.66938 | 8.79238 | 27257 ft | 426 kts | 227° |
| 2026-04-22 08:28 | 51.64997 | 8.75671 | 26761 ft | 423 kts | 227° |
| 2026-04-22 08:29 | 51.63067 | 8.72130 | 26266 ft | 421 kts | 226° |
| 2026-04-22 08:29 | 51.60946 | 8.68919 | 25827 ft | 414 kts | 216° |
| 2026-04-22 08:29 | 51.58575 | 8.66367 | 25388 ft | 407 kts | 206° |
| 2026-04-22 08:29 | 51.56107 | 8.64170 | 24946 ft | 404 kts | 205° |
| 2026-04-22 08:30 | 51.53690 | 8.62012 | 24515 ft | 401 kts | 205° |
| 2026-04-22 08:30 | 51.51257 | 8.59833 | 24069 ft | 399 kts | 205° |
| 2026-04-22 08:30 | 51.48837 | 8.57659 | 23568 ft | 397 kts | 206° |
| 2026-04-22 08:30 | 51.46439 | 8.55500 | 23123 ft | 394 kts | 206° |
| 2026-04-22 08:31 | 51.44057 | 8.53361 | 22673 ft | 391 kts | 206° |
| 2026-04-22 08:31 | 51.41686 | 8.51242 | 22221 ft | 388 kts | 206° |
| 2026-04-22 08:31 | 51.37024 | 8.47096 | 21326 ft | 384 kts | 206° |
| 2026-04-22 08:32 | 51.34694 | 8.45033 | 20876 ft | 382 kts | 206° |
| 2026-04-22 08:32 | 51.32373 | 8.42973 | 20418 ft | 381 kts | 206° |
| 2026-04-22 08:32 | 51.30084 | 8.40873 | 19967 ft | 380 kts | 211° |
| 2026-04-22 08:32 | 51.28015 | 8.38228 | 19511 ft | 382 kts | 224° |
| 2026-04-22 08:33 | 51.26314 | 8.34982 | 19059 ft | 382 kts | 236° |
| 2026-04-22 08:33 | 51.24960 | 8.31338 | 18586 ft | 381 kts | 240° |
| 2026-04-22 08:33 | 51.23641 | 8.27673 | 18121 ft | 380 kts | 240° |
| 2026-04-22 08:33 | 51.22323 | 8.24048 | 17670 ft | 377 kts | 239° |
| 2026-04-22 08:34 | 51.21002 | 8.20438 | 17228 ft | 375 kts | 239° |
| 2026-04-22 08:34 | 51.19691 | 8.16863 | 16793 ft | 373 kts | 239° |
| 2026-04-22 08:34 | 51.18404 | 8.13354 | 16367 ft | 371 kts | 239° |
| 2026-04-22 08:34 | 51.17111 | 8.09828 | 15936 ft | 368 kts | 239° |
| 2026-04-22 08:35 | 51.15819 | 8.06305 | 15507 ft | 367 kts | 239° |
| 2026-04-22 08:35 | 51.14533 | 8.02798 | 14887 ft | 371 kts | 239° |
| 2026-04-22 08:35 | 51.13221 | 7.99233 | 14241 ft | 371 kts | 239° |
| 2026-04-22 08:35 | 51.11943 | 7.95764 | 13987 ft | 355 kts | 239° |
| 2026-04-22 08:36 | 51.10715 | 7.92433 | 13728 ft | 345 kts | 239° |
| 2026-04-22 08:36 | 51.09505 | 7.89157 | 13363 ft | 342 kts | 239° |
| 2026-04-22 08:36 | 51.08301 | 7.85907 | 12954 ft | 340 kts | 238° |
| 2026-04-22 08:36 | 51.07206 | 7.82636 | 12547 ft | 340 kts | 247° |
| 2026-04-22 08:37 | 51.06534 | 7.79057 | 12160 ft | 338 kts | 260° |
| 2026-04-22 08:37 | 51.06325 | 7.75360 | 11823 ft | 334 kts | 268° |
| 2026-04-22 08:37 | 51.06225 | 7.71686 | 11476 ft | 333 kts | 268° |
| 2026-04-22 08:37 | 51.06116 | 7.68018 | 11134 ft | 331 kts | 268° |
| 2026-04-22 08:38 | 51.06005 | 7.64372 | 10792 ft | 330 kts | 268° |
| 2026-04-22 08:38 | 51.05894 | 7.60746 | 10500 ft | 326 kts | 268° |
| 2026-04-22 08:38 | 51.05787 | 7.57199 | 10349 ft | 316 kts | 268° |
| 2026-04-22 08:38 | 51.05681 | 7.53808 | 10349 ft | 311 kts | 268° |
| 2026-04-22 08:39 | 51.05570 | 7.50351 | 9906 ft | 314 kts | 267° |
| 2026-04-22 08:39 | 51.05459 | 7.46912 | 9586 ft | 311 kts | 268° |
| 2026-04-22 08:39 | 51.05350 | 7.43495 | 9249 ft | 308 kts | 268° |
| 2026-04-22 08:39 | 51.05240 | 7.40107 | 8893 ft | 305 kts | 267° |
| 2026-04-22 08:40 | 51.05127 | 7.36753 | 8573 ft | 302 kts | 267° |
| 2026-04-22 08:40 | 51.05014 | 7.33435 | 8269 ft | 300 kts | 267° |
| 2026-04-22 08:40 | 51.04906 | 7.30186 | 7965 ft | 298 kts | 268° |
| 2026-04-22 08:40 | 51.05044 | 7.26924 | 7660 ft | 294 kts | 282° |
| 2026-04-22 08:41 | 51.05562 | 7.23840 | 7510 ft | 284 kts | 287° |
| 2026-04-22 08:41 | 51.06079 | 7.20873 | 7369 ft | 273 kts | 287° |
| 2026-04-22 08:41 | 51.06568 | 7.18032 | 7351 ft | 262 kts | 287° |
| 2026-04-22 08:41 | 51.07050 | 7.15223 | 7021 ft | 261 kts | 287° |
| 2026-04-22 08:42 | 51.07525 | 7.12458 | 6737 ft | 259 kts | 287° |
| 2026-04-22 08:42 | 51.07995 | 7.09710 | 6438 ft | 257 kts | 287° |
| 2026-04-22 08:42 | 51.08464 | 7.06982 | 6148 ft | 255 kts | 287° |
| 2026-04-22 08:42 | 51.08930 | 7.04260 | 5877 ft | 253 kts | 287° |
| 2026-04-22 08:43 | 51.09341 | 7.01589 | 5606 ft | 252 kts | 278° |
| 2026-04-22 08:43 | 51.09355 | 6.98832 | 5341 ft | 249 kts | 261° |
| 2026-04-22 08:43 | 51.09056 | 6.96116 | 5031 ft | 248 kts | 259° |
| 2026-04-22 08:43 | 51.08634 | 6.93460 | 4536 ft | 251 kts | 240° |
| 2026-04-22 08:44 | 51.07573 | 6.91353 | 4296 ft | 241 kts | 214° |
| 2026-04-22 08:44 | 51.06110 | 6.90222 | 4107 ft | 228 kts | 188° |
| 2026-04-22 08:44 | 51.04590 | 6.90133 | 3982 ft | 214 kts | 166° |
| 2026-04-22 08:44 | 51.03249 | 6.90911 | 3867 ft | 197 kts | 144° |
| 2026-04-22 08:45 | 51.02248 | 6.92193 | 3698 ft | 179 kts | 134° |
| 2026-04-22 08:45 | 51.01387 | 6.93456 | 3544 ft | 160 kts | 135° |
| 2026-04-22 08:45 | 51.00593 | 6.94618 | 3381 ft | 153 kts | 135° |
| 2026-04-22 08:45 | 50.99820 | 6.95751 | 3308 ft | 148 kts | 133° |
| 2026-04-22 08:46 | 50.99086 | 6.96824 | 3199 ft | 140 kts | 134° |
| 2026-04-22 08:46 | 50.98375 | 6.97864 | 3038 ft | 138 kts | 134° |
| 2026-04-22 08:46 | 50.97672 | 6.98893 | 2870 ft | 137 kts | 131° |
| 2026-04-22 08:46 | 50.96971 | 6.99915 | 2696 ft | 137 kts | 134° |
| 2026-04-22 08:47 | 50.96272 | 7.00934 | 2502 ft | 136 kts | 134° |
| 2026-04-22 08:47 | 50.95584 | 7.01938 | 2320 ft | 137 kts | 135° |
| 2026-04-22 08:47 | 50.94888 | 7.02950 | 2135 ft | 135 kts | 133° |
| 2026-04-22 08:47 | 50.94191 | 7.03966 | 1954 ft | 137 kts | 139° |
| 2026-04-22 08:48 | 50.93501 | 7.04972 | 1757 ft | 134 kts | 135° |
| 2026-04-22 08:48 | 50.92817 | 7.05969 | 1569 ft | 134 kts | 136° |
| 2026-04-22 08:48 | 50.92125 | 7.06976 | 1380 ft | 134 kts | 136° |
| 2026-04-22 08:48 | 50.91438 | 7.07975 | 1189 ft | 135 kts | 134° |
| 2026-04-22 08:49 | 50.90756 | 7.08967 | 1002 ft | 134 kts | 134° |
| 2026-04-22 08:49 | 50.90054 | 7.09981 | 844 ft | 134 kts | 134° |
| 2026-04-22 08:49 | 50.89367 | 7.10967 | 598 ft | 135 kts | 133° |
| 2026-04-22 08:49 | 50.88673 | 7.12009 | 407 ft | 139 kts | 133° |
| 2026-04-22 08:50 | 50.87968 | 7.13031 | 297 ft | 136 kts | 133° |
| 2026-04-22 08:50 | 50.87338 | 7.13949 | 262 ft | 102 kts | 136° |
| 2026-04-22 08:50 | 50.86944 | 7.14509 | 271 ft | 40 kts | 138° |
| 2026-04-22 08:50 | 50.86879 | 7.14538 | 269 ft | 7 kts | 257° |
| 2026-04-22 08:51 | 50.86876 | 7.14434 | 271 ft | 13 kts | 278° |
| 2026-04-22 08:51 | 50.86886 | 7.14345 | 272 ft | 0 kts | 280° |
| 2026-04-22 08:52 | 50.86888 | 7.14330 | 272 ft | 6 kts | 280° |
| 2026-04-22 08:52 | 50.86900 | 7.14219 | 271 ft | 11 kts | 279° |
| 2026-04-22 08:52 | 50.86915 | 7.14079 | 267 ft | 14 kts | 279° |
| 2026-04-22 08:52 | 50.86933 | 7.13925 | 265 ft | 14 kts | 285° |
| 2026-04-22 08:53 | 50.87003 | 7.13809 | 261 ft | 16 kts | 320° |
| 2026-04-22 08:53 | 50.87087 | 7.13689 | 258 ft | 17 kts | 318° |
| 2026-04-22 08:53 | 50.87184 | 7.13544 | 252 ft | 22 kts | 317° |
| 2026-04-22 08:53 | 50.87300 | 7.13376 | 248 ft | 25 kts | 315° |
| 2026-04-22 08:54 | 50.87432 | 7.13186 | 247 ft | 26 kts | 317° |
| 2026-04-22 08:54 | 50.87541 | 7.13029 | 245 ft | 16 kts | 317° |
| 2026-04-22 08:54 | 50.87623 | 7.12910 | 243 ft | 17 kts | 317° |
| 2026-04-22 08:54 | 50.87717 | 7.12776 | 239 ft | 13 kts | 317° |
| 2026-04-22 08:55 | 50.87768 | 7.12654 | 240 ft | 14 kts | 287° |
| 2026-04-22 08:55 | 50.87780 | 7.12495 | 234 ft | 15 kts | 287° |
| 2026-04-22 08:55 | 50.87799 | 7.12391 | 232 ft | 3 kts | 286° |